This is the latest recevied weather packets stored in our database for station/object Kirchdorf. If no packets are shown the sender has not sent any weather packets the latest 10 day(s).
| Time | Temp. | Humidity | Pressure | Rain* | Wind** | Luminosity | Snow |
|---|---|---|---|---|---|---|---|
| 1777834930 | 18.33° C | 50% | 1013.2 hPa | 0 mm | - | - | - |
| 1777833130 | 17.78° C | 54% | 1012.6 hPa | 0 mm | - | - | - |
| 1777831330 | 20.56° C | 42% | 1012.3 hPa | 0 mm | - | - | - |
| 1777829530 | 21.67° C | 40% | 1012.5 hPa | 0 mm | - | - | - |
| 1777827731 | 23.33° C | 37% | 1012.2 hPa | 0 mm | - | - | - |
| 1777825930 | 24.44° C | 34% | 1012.3 hPa | 0 mm | - | - | - |
| 1777824131 | 23.89° C | 37% | 1012 hPa | 0 mm | - | - | - |
| 1777822330 | 25° C | 34% | 1012.3 hPa | 0 mm | - | - | - |
| 1777820530 | 25° C | 36% | 1012.5 hPa | 0 mm | - | - | - |
| 1777818730 | 25° C | 38% | 1012.6 hPa | 0 mm | - | - | - |
| 1777816930 | 23.33° C | 40% | 1013.1 hPa | 0 mm | - | - | - |
| 1777815131 | 23.33° C | 43% | 1013.4 hPa | 0 mm | - | - | - |
| 1777813330 | 23.89° C | 39% | 1013.7 hPa | 0 mm | - | - | - |
| 1777811536 | 24.44° C | 34% | 1013.8 hPa | 0 mm | - | - | - |
| 1777809730 | 24.44° C | 34% | 1014.1 hPa | 0 mm | - | - | - |
| 1777807932 | 24.44° C | 32% | 1014.3 hPa | 0 mm | - | - | - |
| 1777806130 | 23.89° C | 37% | 1014.5 hPa | 0 mm | - | - | - |
| 1777804332 | 23.33° C | 45% | 1014.9 hPa | 0 mm | - | - | - |
| 1777802532 | 22.78° C | 44% | 1015.2 hPa | 0 mm | - | - | - |
| 1777800731 | 21.67° C | 47% | 1015.4 hPa | 0 mm | - | - | - |
| 1777798930 | 20.56° C | 50% | 1015.6 hPa | 0 mm | - | - | - |
| 1777797132 | 19.44° C | 52% | 1015.6 hPa | 0 mm | - | - | - |
| 1777795332 | 18.89° C | 60% | 1015.7 hPa | 0 mm | - | - | - |
| 1777793531 | 17.78° C | 63% | 1015.7 hPa | 0 mm | - | - | - |
| 1777791731 | 16.11° C | 67% | 1016 hPa | 0 mm | - | - | - |
* Rain since midnight (hover to see other rain measurements)
** Current wind speed in m/s (hover to see current wind gust speed)